Time;durP1;ratioP1;P1;durP2;ratioP2;P2;SDS_P1;SDS_P2;PMS_P1;PMS_P2;Temp;Humidity;BMP_temperature;BMP_pressure;BME280_temperature;BME280_humidity;BME280_pressure;Samples;Min_cycle;Max_cycle;Signal;HPM_P1;HPM_P2
2021/04/28 00:01:58;;;;;;;1.77;0.80;;;16.70;99.90;;;;;;5100227;28;20218;-90
2021/04/28 00:04:29;;;;;;;0.90;0.70;;;17.10;99.90;;;;;;5118643;28;20301;-89
2021/04/28 00:07:02;;;;;;;4.40;0.70;;;17.20;99.90;;;;;;5118061;28;20230;-90
2021/04/28 00:09:34;;;;;;;1.67;0.80;;;17.70;99.90;;;;;;5122216;28;20202;-90
2021/04/28 00:12:06;;;;;;;1.27;0.70;;;17.60;99.90;;;;;;5125467;28;20210;-91
2021/04/28 00:14:36;;;;;;;1.30;0.40;;;17.60;99.90;;;;;;5118741;28;20237;-90
2021/04/28 00:17:07;;;;;;;1.33;0.63;;;17.30;99.90;;;;;;5118707;28;20241;-90
2021/04/28 00:19:37;;;;;;;2.40;1.00;;;17.00;99.90;;;;;;5119121;28;20213;-91
2021/04/28 00:22:07;;;;;;;0.97;0.60;;;17.00;99.90;;;;;;5117173;28;20245;-91
2021/04/28 00:24:37;;;;;;;3.33;0.90;;;17.20;99.90;;;;;;5117242;28;20206;-91
2021/04/28 00:27:08;;;;;;;1.87;0.70;;;17.30;99.90;;;;;;5117251;28;20295;-91
2021/04/28 00:29:37;;;;;;;1.73;0.53;;;17.40;99.90;;;;;;5117595;28;20684;-91
2021/04/28 00:32:09;;;;;;;0.97;0.60;;;17.30;99.90;;;;;;5116956;28;20198;-91
2021/04/28 00:34:41;;;;;;;1.43;0.70;;;17.30;99.90;;;;;;5118271;28;20206;-91
2021/04/28 00:37:11;;;;;;;1.30;0.80;;;17.20;99.90;;;;;;5116524;28;20209;-91
2021/04/28 00:39:41;;;;;;;1.43;0.53;;;17.20;99.90;;;;;;5116633;28;20199;-92
2021/04/28 00:42:11;;;;;;;0.83;0.70;;;16.60;99.90;;;;;;5116021;28;20286;-92
2021/04/28 00:44:41;;;;;;;2.07;0.63;;;16.70;99.90;;;;;;5097103;28;20259;-91
2021/04/28 00:47:13;;;;;;;1.50;0.70;;;16.20;99.90;;;;;;5096601;28;20223;-91
2021/04/28 00:49:46;;;;;;;1.93;0.50;;;16.10;99.90;;;;;;5096660;28;20207;-91
2021/04/28 00:52:17;;;;;;;1.20;0.63;;;16.00;99.90;;;;;;5095986;28;20207;-92
2021/04/28 00:54:48;;;;;;;0.93;0.40;;;16.10;99.90;;;;;;5078265;28;20221;-91
2021/04/28 00:57:19;;;;;;;2.43;0.80;;;16.10;99.90;;;;;;5094904;28;20268;-89
2021/04/28 00:59:50;;;;;;;1.13;0.70;;;16.60;99.90;;;;;;5097688;28;20620;-89
2021/04/28 01:02:21;;;;;;;1.97;0.60;;;17.10;99.90;;;;;;5078766;28;20236;-90
2021/04/28 01:04:54;;;;;;;2.07;0.70;;;17.20;99.90;;;;;;5097747;28;20207;-89
2021/04/28 01:07:24;;;;;;;1.13;0.67;;;17.00;99.90;;;;;;5096443;28;20238;-90
2021/04/28 01:09:55;;;;;;;3.43;0.93;;;16.40;99.90;;;;;;5098546;28;20191;-89
2021/04/28 01:12:28;;;;;;;0.83;0.40;;;16.10;99.90;;;;;;5096057;28;20303;-89
2021/04/28 01:15:01;;;;;;;1.37;0.50;;;15.70;99.90;;;;;;5097691;28;20720;-90
2021/04/28 01:17:32;;;;;;;1.07;0.60;;;15.70;99.90;;;;;;5098389;28;20215;-90
2021/04/28 01:20:06;;;;;;;0.80;0.53;;;15.80;99.90;;;;;;5095512;28;20575;-90
2021/04/28 01:22:41;;;;;;;2.70;0.70;;;16.10;99.90;;;;;;5078008;28;20233;-89
2021/04/28 01:25:14;;;;;;;1.23;0.50;;;16.10;99.90;;;;;;5094745;28;20214;-90
2021/04/28 01:27:48;;;;;;;1.20;0.80;;;15.90;99.90;;;;;;5095933;28;20284;-90
2021/04/28 01:30:20;;;;;;;1.23;0.70;;;16.10;99.90;;;;;;5095325;28;20306;-90
2021/04/28 01:32:53;;;;;;;1.10;0.47;;;16.30;99.90;;;;;;5095434;28;20238;-90
2021/04/28 01:35:26;;;;;;;1.17;0.60;;;16.10;99.90;;;;;;5098245;28;20265;-91
2021/04/28 01:38:00;;;;;;;1.90;0.53;;;15.70;99.90;;;;;;5115265;28;20206;-90
2021/04/28 01:40:30;;;;;;;1.50;0.60;;;15.60;99.90;;;;;;5115855;28;20206;-91
2021/04/28 01:43:00;;;;;;;2.50;0.80;;;15.60;99.90;;;;;;5116121;28;20259;-91
2021/04/28 01:45:33;;;;;;;2.50;0.70;;;15.40;99.90;;;;;;5115039;28;20255;-91
2021/04/28 01:48:05;;;;;;;1.83;0.63;;;15.50;99.90;;;;;;5116109;28;20284;-91
2021/04/28 01:50:35;;;;;;;0.63;0.40;;;15.60;99.90;;;;;;5117362;28;20217;-91
2021/04/28 01:53:08;;;;;;;1.63;0.80;;;15.40;99.90;;;;;;5136325;28;20250;-91
2021/04/28 01:55:39;;;;;;;1.87;0.70;;;15.50;99.90;;;;;;5136284;28;20221;-90
2021/04/28 01:58:09;;;;;;;1.23;0.70;;;15.50;99.90;;;;;;5114292;28;20210;-90
2021/04/28 02:00:41;;;;;;;0.90;0.60;;;15.30;99.90;;;;;;5118017;28;20251;-90
2021/04/28 02:03:12;;;;;;;1.20;0.60;;;15.10;99.90;;;;;;5116981;28;20297;-90
2021/04/28 02:05:44;;;;;;;1.27;0.80;;;15.00;99.90;;;;;;5103283;28;20201;-90
2021/04/28 02:08:16;;;;;;;2.63;0.90;;;15.00;99.90;;;;;;5116656;28;20206;-90
2021/04/28 02:10:46;;;;;;;1.50;0.70;;;15.00;99.90;;;;;;5115503;28;20206;-90
2021/04/28 02:13:17;;;;;;;1.60;0.70;;;15.00;99.90;;;;;;5117433;28;20209;-90
2021/04/28 02:15:48;;;;;;;2.47;1.00;;;15.00;99.90;;;;;;5114701;28;20206;-89
2021/04/28 02:18:19;;;;;;;3.57;0.73;;;15.00;99.90;;;;;;5115231;28;20206;-90
2021/04/28 02:20:51;;;;;;;0.90;0.50;;;15.00;99.90;;;;;;5115196;28;20245;-91
2021/04/28 02:23:25;;;;;;;2.67;0.60;;;15.00;99.90;;;;;;5117408;28;20294;-90
2021/04/28 02:25:56;;;;;;;1.23;0.93;;;15.00;99.90;;;;;;5114713;28;20197;-90
2021/04/28 02:28:27;;;;;;;2.20;0.60;;;15.00;99.90;;;;;;5115661;28;20245;-91
2021/04/28 02:30:58;;;;;;;2.50;0.80;;;15.00;99.90;;;;;;5115495;28;20269;-91
2021/04/28 02:33:29;;;;;;;1.07;0.60;;;14.90;99.90;;;;;;5115025;28;20202;-90
2021/04/28 02:36:00;;;;;;;1.57;0.80;;;14.70;99.90;;;;;;5109619;28;20722;-90
2021/04/28 02:38:39;;;;;;;2.60;0.80;;;14.60;99.90;;;;;;5095485;28;20245;-91
2021/04/28 02:41:11;;;;;;;1.80;0.80;;;14.50;99.90;;;;;;5100904;28;20199;-90
2021/04/28 02:43:43;;;;;;;4.60;1.30;;;14.50;99.90;;;;;;5108736;28;20218;-89
2021/04/28 02:46:16;;;;;;;2.10;1.07;;;14.30;99.90;;;;;;5096869;28;20226;-91
2021/04/28 02:48:50;;;;;;;1.80;0.73;;;14.20;99.90;;;;;;5079626;28;20331;-91
2021/04/28 02:51:20;;;;;;;1.10;0.80;;;14.10;99.90;;;;;;5096656;28;20252;-91
2021/04/28 02:53:53;;;;;;;2.00;0.60;;;14.00;99.90;;;;;;5094833;28;20248;-90
2021/04/28 02:56:23;;;;;;;2.90;0.60;;;13.90;99.90;;;;;;5093685;28;20203;-90
2021/04/28 02:58:54;;;;;;;3.57;1.00;;;13.90;99.90;;;;;;5095792;28;20229;-90
2021/04/28 03:01:26;;;;;;;1.63;0.67;;;13.80;99.90;;;;;;5097345;28;20207;-90
2021/04/28 03:03:57;;;;;;;1.33;0.47;;;13.70;99.90;;;;;;5097023;28;20230;-89
2021/04/28 03:06:28;;;;;;;1.97;0.60;;;13.70;99.90;;;;;;5095148;28;20223;-90
2021/04/28 03:09:01;;;;;;;1.57;0.60;;;13.60;99.90;;;;;;5094781;28;20624;-90
2021/04/28 03:11:32;;;;;;;2.90;1.27;;;13.50;99.90;;;;;;5099498;28;20230;-90
2021/04/28 03:14:04;;;;;;;1.43;0.70;;;13.40;99.90;;;;;;5076861;28;20257;-90
2021/04/28 03:16:35;;;;;;;4.30;0.77;;;13.40;99.90;;;;;;5095780;28;20343;-90
2021/04/28 03:19:08;;;;;;;2.37;0.70;;;13.30;99.90;;;;;;5094030;28;20290;-90
2021/04/28 03:21:44;;;;;;;1.80;0.50;;;13.30;99.90;;;;;;5096354;28;20235;-90
2021/04/28 03:24:18;;;;;;;1.80;0.70;;;13.30;99.90;;;;;;5098739;28;20249;-90
2021/04/28 03:26:49;;;;;;;2.00;0.73;;;13.30;99.90;;;;;;5096962;28;20222;-91
2021/04/28 03:29:20;;;;;;;1.43;0.70;;;13.30;99.90;;;;;;5076771;28;20643;-90
2021/04/28 03:31:51;;;;;;;0.97;0.53;;;13.20;99.90;;;;;;5095296;28;20317;-90
2021/04/28 03:34:22;;;;;;;1.63;0.83;;;13.20;99.90;;;;;;5097364;28;20257;-91
2021/04/28 03:36:52;;;;;;;1.73;0.90;;;13.20;99.90;;;;;;5093037;28;20198;-90
2021/04/28 03:39:27;;;;;;;2.37;0.90;;;13.10;99.90;;;;;;5094498;28;20237;-90
2021/04/28 03:41:58;;;;;;;1.73;0.70;;;13.20;99.90;;;;;;5094483;28;20206;-90
2021/04/28 03:44:30;;;;;;;1.43;0.60;;;13.20;99.90;;;;;;5093748;28;20207;-91
2021/04/28 03:47:00;;;;;;;1.23;0.87;;;13.10;99.90;;;;;;5093806;28;20265;-91
2021/04/28 03:49:29;;;;;;;2.77;0.90;;;13.10;99.90;;;;;;5094785;28;20211;-90
2021/04/28 03:51:59;;;;;;;0.90;0.63;;;13.10;99.90;;;;;;5094100;28;20226;-90
2021/04/28 03:54:32;;;;;;;1.23;0.80;;;13.10;99.90;;;;;;5096067;28;20294;-91
2021/04/28 03:57:03;;;;;;;1.30;0.80;;;13.10;99.90;;;;;;5079252;28;20211;-90
2021/04/28 03:59:34;;;;;;;1.77;1.00;;;13.20;99.90;;;;;;5097054;28;20249;-90
2021/04/28 04:02:05;;;;;;;4.03;1.03;;;13.10;99.90;;;;;;5097075;28;20667;-90
2021/04/28 04:04:36;;;;;;;5.17;2.10;;;13.10;99.90;;;;;;5097099;28;20221;-90
2021/04/28 04:07:07;;;;;;;12.33;5.53;;;13.00;99.90;;;;;;5097002;28;20237;-89
2021/04/28 04:09:39;;;;;;;9.00;5.03;;;12.90;99.90;;;;;;5100730;28;20264;-91
2021/04/28 04:12:10;;;;;;;8.23;4.77;;;12.90;99.90;;;;;;5118606;28;20659;-89
2021/04/28 04:14:41;;;;;;;13.13;7.17;;;12.90;99.90;;;;;;5133734;28;20190;-89
2021/04/28 04:17:11;;;;;;;5.43;3.30;;;12.90;99.90;;;;;;5139291;28;20202;-90
2021/04/28 04:19:42;;;;;;;8.20;4.67;;;12.90;99.90;;;;;;5138604;28;20213;-89
2021/04/28 04:22:13;;;;;;;8.50;4.47;;;13.00;99.90;;;;;;5120873;28;20237;-90
2021/04/28 04:24:46;;;;;;;6.17;3.67;;;13.00;99.90;;;;;;5119657;28;20214;-93
2021/04/28 04:27:17;;;;;;;5.00;2.73;;;13.00;99.90;;;;;;5118398;28;20269;-90
2021/04/28 04:29:48;;;;;;;4.80;2.40;;;13.00;99.90;;;;;;5117494;28;20259;-90
2021/04/28 04:32:18;;;;;;;4.40;2.33;;;13.00;99.90;;;;;;5116291;28;20214;-91
2021/04/28 04:34:49;;;;;;;4.00;2.07;;;12.90;99.90;;;;;;5099815;28;20251;-91
2021/04/28 04:37:19;;;;;;;2.40;1.97;;;12.90;99.90;;;;;;5117364;28;20221;-90
2021/04/28 04:39:50;;;;;;;1.63;1.43;;;12.80;99.90;;;;;;5117575;28;20251;-90
2021/04/28 04:42:20;;;;;;;2.50;1.40;;;12.90;99.90;;;;;;5099438;28;20206;-90
2021/04/28 04:44:50;;;;;;;3.10;1.60;;;12.90;99.90;;;;;;5098487;28;20239;-91
2021/04/28 04:47:21;;;;;;;3.63;1.63;;;12.80;99.90;;;;;;5116833;28;20234;-91
2021/04/28 04:49:51;;;;;;;3.20;1.57;;;12.80;99.90;;;;;;5116321;28;20266;-91
2021/04/28 04:52:22;;;;;;;1.30;1.20;;;12.80;99.90;;;;;;5116678;28;20678;-91
2021/04/28 04:54:55;;;;;;;2.93;1.60;;;12.80;99.90;;;;;;5116283;28;20206;-90
2021/04/28 04:57:25;;;;;;;2.77;1.40;;;12.80;99.90;;;;;;5116539;28;20241;-90
2021/04/28 04:59:56;;;;;;;3.87;1.10;;;12.80;99.90;;;;;;5117165;28;20263;-90
2021/04/28 05:02:26;;;;;;;3.77;1.57;;;12.90;99.90;;;;;;5116443;28;20210;-90
2021/04/28 05:04:56;;;;;;;3.30;1.73;;;12.80;99.90;;;;;;5115558;28;20202;-90
2021/04/28 05:07:27;;;;;;;3.30;1.50;;;12.70;99.90;;;;;;5116183;28;20763;-90
2021/04/28 05:09:59;;;;;;;2.33;1.77;;;12.70;99.90;;;;;;5116850;28;20213;-89
2021/04/28 05:12:29;;;;;;;4.47;1.90;;;12.60;99.90;;;;;;5116611;28;20659;-90
2021/04/28 05:15:00;;;;;;;2.10;1.73;;;12.70;99.90;;;;;;5116248;28;20627;-90
2021/04/28 05:17:30;;;;;;;1.93;1.70;;;12.60;99.90;;;;;;5120495;28;20682;-89
2021/04/28 05:20:01;;;;;;;2.87;1.80;;;12.70;99.90;;;;;;5116461;28;20255;-88
2021/04/28 05:22:31;;;;;;;2.03;1.73;;;12.70;99.90;;;;;;5119866;28;20259;-89
2021/04/28 05:25:05;;;;;;;2.30;1.90;;;12.70;99.90;;;;;;5117418;28;20214;-89
2021/04/28 05:27:36;;;;;;;3.17;1.93;;;12.70;99.90;;;;;;5118347;28;20234;-89
2021/04/28 05:30:09;;;;;;;3.27;1.97;;;12.70;99.90;;;;;;5116619;28;20202;-89
2021/04/28 05:32:41;;;;;;;2.67;1.80;;;12.60;99.90;;;;;;5115968;28;20240;-90
2021/04/28 05:35:13;;;;;;;2.90;1.63;;;12.60;99.90;;;;;;5116584;28;20194;-92
2021/04/28 05:37:44;;;;;;;2.97;1.80;;;12.50;99.90;;;;;;5111706;28;20260;-90
2021/04/28 05:40:18;;;;;;;3.30;1.70;;;12.50;99.90;;;;;;5096736;28;20251;-89
2021/04/28 05:42:49;;;;;;;5.00;1.90;;;12.50;99.90;;;;;;5098476;28;20599;-90
2021/04/28 05:45:19;;;;;;;2.23;2.03;;;12.40;99.90;;;;;;5115390;28;20237;-91
2021/04/28 05:47:51;;;;;;;1.83;1.40;;;12.40;99.90;;;;;;5115986;28;20770;-90
2021/04/28 05:50:21;;;;;;;3.97;1.50;;;12.40;99.90;;;;;;5098653;28;20206;-90
2021/04/28 05:52:53;;;;;;;1.83;1.70;;;12.40;99.90;;;;;;5116188;28;20213;-91
2021/04/28 05:55:25;;;;;;;2.10;1.80;;;12.40;99.90;;;;;;5115635;28;20289;-91
2021/04/28 05:57:55;;;;;;;2.80;2.10;;;12.30;99.90;;;;;;5103161;28;20182;-91
2021/04/28 06:00:27;;;;;;;2.33;1.80;;;12.30;99.90;;;;;;5116027;28;20285;-90
2021/04/28 06:02:58;;;;;;;5.33;2.10;;;12.20;99.90;;;;;;5119420;28;20198;-90
2021/04/28 06:05:29;;;;;;;4.73;1.90;;;12.20;99.90;;;;;;5116467;28;20206;-89
2021/04/28 06:08:00;;;;;;;5.80;2.50;;;12.20;99.90;;;;;;5117771;28;20253;-89
2021/04/28 06:10:32;;;;;;;2.80;2.00;;;12.10;99.90;;;;;;5116474;28;20245;-89
2021/04/28 06:13:03;;;;;;;4.10;2.37;;;12.10;99.90;;;;;;5116355;28;20205;-90
2021/04/28 06:15:34;;;;;;;3.20;2.17;;;12.00;99.90;;;;;;5115691;28;20205;-89
2021/04/28 06:18:05;;;;;;;2.67;2.07;;;12.00;99.90;;;;;;5115463;28;20669;-90
2021/04/28 06:20:37;;;;;;;3.50;1.80;;;11.90;99.90;;;;;;5115803;28;20206;-90
2021/04/28 06:23:08;;;;;;;3.77;2.07;;;11.90;99.90;;;;;;5115092;28;20742;-90
2021/04/28 06:25:40;;;;;;;4.00;1.80;;;11.80;99.90;;;;;;5112714;28;20635;-90
2021/04/28 06:28:11;;;;;;;2.20;1.90;;;11.80;99.90;;;;;;5114734;28;20225;-90
2021/04/28 06:30:42;;;;;;;4.20;2.20;;;11.70;99.90;;;;;;5115841;28;20229;-90
2021/04/28 06:33:12;;;;;;;1.90;1.80;;;11.70;99.90;;;;;;5116457;28;20251;-89
2021/04/28 06:35:43;;;;;;;2.27;1.80;;;11.70;99.90;;;;;;5130920;28;20202;-89
2021/04/28 06:38:14;;;;;;;2.13;1.67;;;11.60;99.90;;;;;;5135982;28;20194;-90
2021/04/28 06:40:46;;;;;;;2.40;1.70;;;11.50;99.90;;;;;;5134282;28;20206;-90
2021/04/28 06:43:18;;;;;;;2.27;1.50;;;11.50;99.90;;;;;;5130614;28;20277;-89
2021/04/28 06:46:06;;;;;;;3.73;2.00;;;11.50;99.90;;;;;;5096708;28;20275;-90
2021/04/28 06:48:37;;;;;;;2.17;1.70;;;11.50;99.90;;;;;;5095568;28;20246;-90
2021/04/28 06:51:08;;;;;;;2.57;1.80;;;11.40;99.90;;;;;;5095392;28;20697;-90
2021/04/28 06:53:39;;;;;;;2.83;1.77;;;11.40;99.90;;;;;;5077661;28;20276;-90
2021/04/28 06:56:11;;;;;;;1.60;1.50;;;11.30;99.90;;;;;;5098846;28;20198;-90
2021/04/28 06:58:42;;;;;;;2.53;1.70;;;11.20;99.90;;;;;;5096251;28;20260;-90
2021/04/28 07:01:13;;;;;;;2.17;1.63;;;11.30;99.90;;;;;;5097276;28;20596;-90
2021/04/28 07:03:44;;;;;;;3.00;1.60;;;11.20;99.90;;;;;;5095714;28;20245;-90
2021/04/28 07:06:15;;;;;;;3.77;1.93;;;11.20;99.90;;;;;;5095281;28;20620;-90
2021/04/28 07:08:46;;;;;;;1.70;1.50;;;11.20;99.90;;;;;;5098047;28;20234;-90
2021/04/28 07:11:19;;;;;;;1.60;1.50;;;11.20;99.90;;;;;;5095969;28;20607;-89
2021/04/28 07:13:50;;;;;;;2.70;1.50;;;11.10;99.90;;;;;;5102894;28;20601;-89
2021/04/28 07:16:20;;;;;;;4.07;1.60;;;11.10;99.90;;;;;;5102983;28;20248;-91
2021/04/28 07:18:50;;;;;;;2.47;1.53;;;11.00;99.90;;;;;;5103692;28;20206;-90
2021/04/28 07:21:20;;;;;;;1.80;1.50;;;11.00;99.90;;;;;;5102663;28;20231;-91
2021/04/28 07:23:52;;;;;;;2.47;1.57;;;10.90;99.90;;;;;;5100599;28;20553;-91
2021/04/28 07:26:24;;;;;;;3.50;1.67;;;10.90;99.90;;;;;;5102007;28;20231;-91
2021/04/28 07:28:55;;;;;;;2.17;1.50;;;10.90;99.90;;;;;;5115297;28;20678;-91
2021/04/28 07:31:26;;;;;;;3.10;1.80;;;10.90;99.90;;;;;;5109424;28;20209;-91
2021/04/28 07:33:57;;;;;;;2.63;1.50;;;10.90;99.90;;;;;;5127889;28;20199;-90
2021/04/28 07:36:28;;;;;;;3.80;1.70;;;10.90;99.90;;;;;;5127913;28;20228;-91
2021/04/28 07:38:59;;;;;;;1.97;1.50;;;10.80;99.90;;;;;;5129150;28;20202;-92
2021/04/28 07:41:32;;;;;;;2.37;1.50;;;10.80;99.90;;;;;;5126522;28;20210;-91
2021/04/28 07:44:03;;;;;;;2.03;1.27;;;10.80;99.90;;;;;;5126878;28;20281;-91
2021/04/28 07:46:35;;;;;;;3.83;1.30;;;10.70;99.90;;;;;;5127532;28;20199;-92
2021/04/28 07:49:06;;;;;;;1.67;1.27;;;10.70;99.90;;;;;;5123369;28;20221;-92
2021/04/28 07:51:38;;;;;;;2.73;1.40;;;10.60;99.90;;;;;;5120965;28;20658;-92
2021/04/28 07:54:24;;;;;;;1.40;1.30;;;10.60;99.90;;;;;;5102829;28;20539;-91
2021/04/28 07:56:58;;;;;;;3.93;1.60;;;10.50;99.90;;;;;;5117801;28;20558;-91
2021/04/28 07:59:29;;;;;;;2.10;1.30;;;10.50;99.90;;;;;;5117957;28;20202;-92
2021/04/28 08:02:00;;;;;;;3.70;1.40;;;10.50;99.90;;;;;;5100333;28;20206;-91
2021/04/28 08:04:32;;;;;;;2.50;1.50;;;10.40;99.90;;;;;;5117869;28;20237;-92
2021/04/28 08:07:02;;;;;;;1.67;1.40;;;10.40;99.90;;;;;;5117309;28;20264;-91
2021/04/28 08:09:35;;;;;;;3.27;1.40;;;10.30;99.90;;;;;;5117292;28;20252;-91
2021/04/28 08:12:08;;;;;;;2.53;1.70;;;10.40;99.90;;;;;;5117366;28;20228;-91
2021/04/28 08:14:39;;;;;;;1.83;1.40;;;10.30;99.90;;;;;;5117894;28;20670;-90
2021/04/28 08:17:12;;;;;;;1.57;1.30;;;10.40;99.90;;;;;;5117308;28;20266;-91
2021/04/28 08:19:43;;;;;;;1.80;1.43;;;10.40;99.90;;;;;;5118243;28;20305;-91
2021/04/28 08:22:14;;;;;;;2.90;1.43;;;10.40;99.90;;;;;;5116342;28;20253;-91
2021/04/28 08:24:45;;;;;;;3.60;1.47;;;10.40;99.90;;;;;;5117533;28;20237;-90
2021/04/28 08:27:18;;;;;;;1.93;1.20;;;10.40;99.90;;;;;;5100218;28;20260;-91
2021/04/28 08:29:48;;;;;;;3.07;1.60;;;10.50;99.90;;;;;;5117627;28;20222;-91
2021/04/28 08:32:19;;;;;;;1.73;1.20;;;10.50;99.90;;;;;;5117637;28;20240;-91
2021/04/28 08:34:51;;;;;;;3.23;1.40;;;10.50;99.90;;;;;;5117502;28;20203;-91
2021/04/28 08:37:21;;;;;;;2.07;1.33;;;10.50;99.90;;;;;;5125165;28;20210;-91
2021/04/28 08:39:52;;;;;;;1.73;1.30;;;10.50;99.90;;;;;;5129025;28;20207;-90
2021/04/28 08:42:24;;;;;;;2.97;1.60;;;10.50;99.90;;;;;;5118855;28;20210;-91
2021/04/28 08:44:55;;;;;;;1.67;1.20;;;10.50;99.90;;;;;;5099278;28;20670;-91
2021/04/28 08:47:26;;;;;;;1.23;1.13;;;10.60;99.90;;;;;;5120240;28;20689;-91
2021/04/28 08:49:57;;;;;;;1.87;1.23;;;10.60;99.90;;;;;;5117301;28;20202;-92
2021/04/28 08:52:29;;;;;;;2.47;1.40;;;10.60;99.90;;;;;;5119921;28;20212;-91
2021/04/28 08:54:59;;;;;;;1.73;1.33;;;10.60;99.90;;;;;;5121626;28;20206;-91
2021/04/28 08:57:31;;;;;;;2.20;1.33;;;10.60;99.90;;;;;;5126441;28;20232;-91
2021/04/28 09:00:02;;;;;;;2.07;1.07;;;10.70;99.90;;;;;;5130623;28;20202;-92
2021/04/28 09:02:33;;;;;;;1.93;1.27;;;10.70;99.90;;;;;;5130804;28;20257;-91
2021/04/28 09:05:07;;;;;;;2.70;1.50;;;10.70;99.90;;;;;;5126256;28;20229;-89
2021/04/28 09:07:38;;;;;;;2.57;1.27;;;10.70;99.90;;;;;;5121077;28;20254;-89
2021/04/28 09:10:10;;;;;;;2.03;1.10;;;10.70;99.90;;;;;;5118712;28;20284;-90
2021/04/28 09:12:50;;;;;;;2.30;1.00;;;10.60;99.90;;;;;;5117298;28;20248;-90
2021/04/28 09:15:37;;;;;;;2.77;1.20;;;10.50;99.90;;;;;;5117193;28;20289;-90
2021/04/28 09:18:09;;;;;;;1.90;1.40;;;10.40;99.90;;;;;;5118512;28;20213;-89
2021/04/28 09:20:43;;;;;;;3.17;1.87;;;10.40;99.90;;;;;;5121184;28;20198;-90
2021/04/28 09:23:16;;;;;;;3.50;1.13;;;10.40;99.90;;;;;;5116452;28;20228;-89
2021/04/28 09:25:48;;;;;;;1.90;1.17;;;10.40;99.90;;;;;;5100498;28;20210;-89
2021/04/28 09:28:37;;;;;;;4.13;1.30;;;10.40;99.90;;;;;;5120216;28;20553;-90
2021/04/28 09:31:16;;;;;;;2.60;1.50;;;10.30;99.90;;;;;;5115256;28;20255;-90
2021/04/28 09:33:56;;;;;;;1.63;0.93;;;10.30;99.90;;;;;;5117455;28;20198;-89
2021/04/28 09:36:30;;;;;;;2.73;1.30;;;10.20;99.90;;;;;;5115521;28;20202;-90
2021/04/28 09:39:05;;;;;;;1.70;1.17;;;10.20;99.90;;;;;;5119759;28;20209;-90
2021/04/28 09:41:42;;;;;;;1.40;1.10;;;10.10;99.90;;;;;;5124059;28;20198;-90
2021/04/28 09:44:32;;;;;;;2.10;1.27;;;10.00;99.90;;;;;;5118546;28;20241;-90
2021/04/28 09:47:10;;;;;;;3.13;1.40;;;9.90;99.90;;;;;;5115330;28;20234;-91
2021/04/28 09:49:49;;;;;;;1.53;1.20;;;9.80;99.90;;;;;;5115929;28;20217;-90
2021/04/28 09:52:21;;;;;;;2.43;1.30;;;9.70;99.90;;;;;;5115134;28;20662;-90
2021/04/28 09:54:53;;;;;;;2.40;1.13;;;9.60;99.90;;;;;;5118849;28;20226;-90
2021/04/28 09:57:36;;;;;;;2.73;1.17;;;9.60;99.90;;;;;;5118319;28;20224;-90
2021/04/28 10:00:19;;;;;;;3.57;1.30;;;9.50;99.90;;;;;;5118172;28;20219;-90
2021/04/28 10:02:57;;;;;;;3.63;1.37;;;9.40;99.90;;;;;;5115962;28;20217;-90
2021/04/28 10:05:30;;;;;;;3.70;1.30;;;9.30;99.90;;;;;;5117611;28;20190;-91
2021/04/28 10:08:13;;;;;;;2.53;1.30;;;9.30;99.90;;;;;;5117099;28;20225;-90
2021/04/28 10:10:44;;;;;;;2.10;1.33;;;9.30;99.90;;;;;;5116569;28;20622;-90
2021/04/28 10:13:14;;;;;;;1.43;1.20;;;9.20;99.90;;;;;;5115511;28;20210;-89
2021/04/28 10:15:47;;;;;;;1.13;1.00;;;9.20;99.90;;;;;;5114595;28;20213;-90
2021/04/28 10:18:19;;;;;;;2.17;1.10;;;9.10;99.90;;;;;;5107566;28;20222;-89
2021/04/28 10:20:51;;;;;;;2.63;1.70;;;9.00;99.90;;;;;;5097404;28;20616;-90
2021/04/28 10:23:25;;;;;;;1.60;1.47;;;9.00;99.90;;;;;;5114457;28;20210;-89
2021/04/28 10:25:57;;;;;;;3.93;1.70;;;8.90;99.90;;;;;;5114293;28;20201;-89
2021/04/28 10:28:28;;;;;;;1.53;1.30;;;8.90;99.90;;;;;;5115157;28;20263;-89
2021/04/28 10:31:04;;;;;;;3.17;1.77;;;8.90;99.90;;;;;;5114769;28;20206;-89
2021/04/28 10:33:37;;;;;;;3.60;1.70;;;8.90;99.90;;;;;;5115319;28;20208;-90
2021/04/28 10:36:29;;;;;;;3.27;1.40;;;8.90;99.90;;;;;;5114531;28;20295;-90
2021/04/28 10:39:00;;;;;;;2.13;1.53;;;8.80;99.90;;;;;;5114801;28;20206;-90
2021/04/28 10:41:48;;;;;;;7.20;1.80;;;8.80;99.90;;;;;;5115227;28;20209;-90
2021/04/28 10:44:40;;;;;;;4.30;1.47;;;8.80;99.90;;;;;;5114979;28;20209;-90
2021/04/28 10:47:31;;;;;;;3.27;1.87;;;8.70;99.90;;;;;;5114191;28;20225;-90
2021/04/28 10:50:09;;;;;;;2.50;1.50;;;8.80;99.90;;;;;;5114452;28;20278;-90
2021/04/28 10:52:48;;;;;;;3.20;1.97;;;8.80;99.90;;;;;;5097309;28;20201;-90
2021/04/28 10:55:49;;;;;;;1.93;1.63;;;8.80;99.90;;;;;;5114421;28;20254;-90
2021/04/28 10:58:40;;;;;;;2.87;2.10;;;8.80;99.90;;;;;;5109871;28;20206;-90
2021/04/28 11:01:15;;;;;;;2.27;1.50;;;8.90;99.90;;;;;;5094649;28;20203;-90
2021/04/28 11:03:48;;;;;;;1.63;1.43;;;8.90;99.90;;;;;;5098094;28;20253;-90
2021/04/28 11:06:39;;;;;;;2.03;1.60;;;8.90;99.90;;;;;;5098560;28;20211;-89
2021/04/28 11:09:12;;;;;;;1.97;1.50;;;8.90;99.90;;;;;;5101158;28;20304;-89
2021/04/28 11:11:52;;;;;;;1.83;1.57;;;8.80;99.90;;;;;;5098518;28;20238;-89
2021/04/28 11:14:33;;;;;;;6.13;1.63;;;9.00;99.90;;;;;;5081117;28;20273;-90
2021/04/28 11:17:27;;;;;;;2.30;1.67;;;9.00;99.90;;;;;;5091017;28;20211;-89
2021/04/28 11:20:24;;;;;;;2.47;1.80;;;9.10;99.90;;;;;;5121644;28;20212;-90
2021/04/28 11:22:54;;;;;;;1.60;1.50;;;9.10;99.90;;;;;;5127609;28;20201;-89
2021/04/28 11:25:25;;;;;;;2.97;1.53;;;9.10;99.90;;;;;;5120371;28;20237;-90
2021/04/28 11:28:01;;;;;;;2.30;1.63;;;9.10;99.90;;;;;;5101969;28;20225;-89
2021/04/28 11:30:48;;;;;;;2.03;1.53;;;9.10;99.90;;;;;;5120784;28;20597;-90
2021/04/28 11:33:36;;;;;;;3.30;1.40;;;9.20;99.90;;;;;;5118361;28;20278;-90
2021/04/28 11:36:15;;;;;;;2.93;1.30;;;9.20;99.90;;;;;;5117775;28;20743;-90
2021/04/28 11:38:52;;;;;;;1.80;1.30;;;9.20;99.90;;;;;;5117858;28;20209;-89
2021/04/28 11:41:26;;;;;;;1.87;1.47;;;9.10;99.90;;;;;;5117828;28;20281;-90
2021/04/28 11:43:58;;;;;;;3.23;1.40;;;9.10;99.90;;;;;;5118693;28;20206;-90
2021/04/28 11:46:31;;;;;;;1.70;1.60;;;9.10;99.90;;;;;;5117346;28;20334;-89
2021/04/28 11:49:03;;;;;;;3.47;1.63;;;9.00;99.90;;;;;;5117364;28;20233;-90
2021/04/28 11:51:36;;;;;;;2.80;1.60;;;9.00;99.90;;;;;;5117793;28;20209;-90
2021/04/28 11:54:11;;;;;;;2.27;1.33;;;9.00;99.90;;;;;;5118007;28;20205;-90
2021/04/28 11:56:46;;;;;;;2.27;1.60;;;9.10;99.90;;;;;;5099030;28;20219;-91
2021/04/28 11:59:22;;;;;;;2.37;1.60;;;9.00;99.90;;;;;;5100304;28;20205;-90
2021/04/28 12:01:56;;;;;;;4.10;1.77;;;9.00;99.90;;;;;;5117597;28;20232;-90
2021/04/28 12:04:31;;;;;;;1.90;1.40;;;8.90;99.90;;;;;;5117242;28;20684;-89
2021/04/28 12:07:05;;;;;;;3.20;1.53;;;8.90;99.90;;;;;;5116482;28;20205;-89
2021/04/28 12:09:40;;;;;;;3.47;1.50;;;8.90;99.90;;;;;;5117140;28;20328;-89
2021/04/28 12:12:22;;;;;;;2.97;1.70;;;8.90;99.90;;;;;;5115641;28;20280;-88
2021/04/28 12:14:56;;;;;;;1.80;1.40;;;8.90;99.90;;;;;;4760899;28;10000114;-87
2021/04/28 12:17:27;;;;;;;2.20;1.63;;;8.80;99.90;;;;;;4763385;28;9999947;-89
2021/04/28 12:19:57;;;;;;;2.00;1.33;;;8.80;99.90;;;;;;5089230;28;20206;-89
2021/04/28 12:22:33;;;;;;;1.90;1.70;;;8.90;99.90;;;;;;5128212;27;20325;-89
2021/04/28 12:25:10;;;;;;;2.13;1.43;;;9.00;99.90;;;;;;5136193;27;20207;-89
2021/04/28 12:27:41;;;;;;;2.03;1.40;;;9.00;99.90;;;;;;5137385;27;20674;-89
2021/04/28 12:30:15;;;;;;;1.80;1.43;;;9.10;99.90;;;;;;5096989;28;20217;-89
2021/04/28 12:32:48;;;;;;;1.93;1.50;;;9.20;99.90;;;;;;5096852;28;20663;-89
2021/04/28 12:35:20;;;;;;;1.87;1.20;;;9.20;99.90;;;;;;5095458;28;20268;-89
2021/04/28 12:38:05;;;;;;;2.80;1.30;;;9.20;99.90;;;;;;5096521;28;20234;-90
2021/04/28 12:40:38;;;;;;;3.13;1.47;;;9.20;99.90;;;;;;5096492;28;20670;-90
2021/04/28 12:43:10;;;;;;;2.77;1.67;;;9.30;99.90;;;;;;5096235;28;20633;-90
2021/04/28 12:46:04;;;;;;;5.23;1.60;;;9.30;99.90;;;;;;5095340;28;20220;-90
2021/04/28 12:48:52;;;;;;;1.83;1.60;;;9.30;99.90;;;;;;5096970;28;20237;-89
2021/04/28 12:51:24;;;;;;;1.73;1.60;;;9.40;99.90;;;;;;5096199;28;20214;-90
2021/04/28 12:53:57;;;;;;;3.53;1.23;;;9.40;99.90;;;;;;5096244;28;20246;-90
2021/04/28 12:56:42;;;;;;;1.43;1.30;;;9.40;99.90;;;;;;5095506;28;20237;-89
2021/04/28 12:59:17;;;;;;;2.20;1.33;;;9.40;99.90;;;;;;5096122;28;20264;-89
2021/04/28 13:02:01;;;;;;;1.73;1.10;;;9.40;99.90;;;;;;5095901;28;20198;-90
2021/04/28 13:04:32;;;;;;;2.63;1.60;;;9.40;99.90;;;;;;5096471;28;20210;-89
2021/04/28 13:07:15;;;;;;;1.40;1.30;;;9.50;99.90;;;;;;5097742;28;20207;-89
2021/04/28 13:09:48;;;;;;;3.20;1.40;;;9.50;99.90;;;;;;5095704;28;20270;-89
2021/04/28 13:12:36;;;;;;;2.87;1.40;;;9.50;99.90;;;;;;5078237;28;20214;-89
2021/04/28 13:15:10;;;;;;;1.67;1.40;;;9.50;99.90;;;;;;5095307;28;20256;-88
2021/04/28 13:18:01;;;;;;;1.40;1.30;;;9.50;99.90;;;;;;5096181;28;20709;-89
2021/04/28 13:20:33;;;;;;;3.00;1.47;;;9.50;99.90;;;;;;5095850;28;20207;-89
2021/04/28 13:23:14;;;;;;;2.77;1.47;;;9.50;99.90;;;;;;5095848;28;20218;-89